CheckWX is a tool to help pilots better visualize weather data.  It is not intended as a substitute for an official pre-flight weather briefing.

01:00:27 UTC

LDZA METAR
Zagreb Airport
Zagreb, Croatia
Current

30 mins ago

LDZA 120030Z 00000KT 3000 -DZ BR BKN003 OVC009 07/07 Q1011 NOSIG
Observed
Nov-12 @ 00:30 UTC
Visibility
3,000 meters
Flight Rules
LIFR
Conditions
Light Drizzle, Mist
Cloud Levels
  • Broken at 300' AGL
  • Overcast at 900' AGL
Temperature
C / 45°F
Dewpoint
C / 45°F
Humidity
100%
Altimeter
29.85" Hg
Pressure
1010.92 hPa
Previous

60 mins ago

LDZA 120000Z VRB01KT 3500 -DZ BR OVC002 07/06 Q1012 NOSIG
Observed
Nov-12 @ 00:00 UTC
Wind
  • Variable at 1 KTS
Visibility
3,500 meters
Flight Rules
LIFR
Conditions
Light Drizzle, Mist
Cloud Levels
  • Overcast at 200' AGL
Temperature
C / 45°F
Dewpoint
C / 43°F
Humidity
93%
Altimeter
29.88" Hg
Pressure
1011.92 hPa
Previous

2 hours ago

LDZA 112330Z 27003KT 220V300 3000 -DZ BR OVC002 07/06 Q1012 NOSIG
Observed
Nov-11 @ 23:30 UTC
Wind
  • 270° at 3 KTS
Visibility
3,000 meters
Flight Rules
LIFR
Conditions
Light Drizzle, Mist
Cloud Levels
  • Overcast at 200' AGL
Temperature
C / 45°F
Dewpoint
C / 43°F
Humidity
93%
Altimeter
29.88" Hg
Pressure
1011.92 hPa